createdAt,value
2018-06-13T00:01:42.734Z,61.20
2018-06-13T00:05:15.997Z,60.40
2018-06-13T00:08:49.244Z,60.40
2018-06-13T00:12:22.483Z,60.30
2018-06-13T00:15:55.727Z,60.20
2018-06-13T00:19:28.958Z,60.30
2018-06-13T00:23:02.220Z,60.40
2018-06-13T00:26:35.451Z,60.00
2018-06-13T00:30:08.691Z,60.10
2018-06-13T00:33:41.964Z,60.00
2018-06-13T00:37:15.219Z,60.00
2018-06-13T00:40:48.462Z,60.00
2018-06-13T00:44:21.684Z,60.10
2018-06-13T00:47:54.914Z,60.00
2018-06-13T00:51:28.144Z,60.00
2018-06-13T00:55:01.367Z,60.00
2018-06-13T00:58:34.589Z,59.90
2018-06-13T01:02:07.844Z,59.70
2018-06-13T01:05:41.080Z,59.80
2018-06-13T01:09:14.329Z,59.80
2018-06-13T01:12:47.577Z,59.80
2018-06-13T01:16:20.830Z,59.50
2018-06-13T01:23:27.046Z,59.30
2018-06-13T01:27:00.282Z,59.10
2018-06-13T01:30:33.534Z,58.90
2018-06-13T01:34:06.764Z,58.90
2018-06-13T01:41:12.973Z,58.70
2018-06-13T01:44:46.194Z,58.80
2018-06-13T01:48:19.453Z,58.60
2018-06-13T01:51:52.663Z,58.60
2018-06-13T01:55:25.899Z,58.50
2018-06-13T01:58:59.143Z,58.50
2018-06-13T02:02:32.366Z,58.60
2018-06-13T02:06:05.583Z,58.70
2018-06-13T02:09:38.875Z,58.30
2018-06-13T02:13:12.107Z,58.20
2018-06-13T02:20:18.334Z,58.60
2018-06-13T02:23:51.576Z,58.70
2018-06-13T02:27:24.879Z,58.70
2018-06-13T02:30:58.040Z,58.60
2018-06-13T02:34:31.274Z,58.20
2018-06-13T02:38:04.511Z,58.30
2018-06-13T02:41:37.777Z,58.50
2018-06-13T02:45:10.997Z,58.70
2018-06-13T02:48:44.231Z,58.80
2018-06-13T02:52:17.461Z,58.80
2018-06-13T02:55:50.708Z,59.00
2018-06-13T02:59:23.947Z,58.70
2018-06-13T03:02:57.187Z,58.30
2018-06-13T03:10:03.432Z,58.10
2018-06-13T03:13:36.698Z,58.20
2018-06-13T03:17:09.948Z,58.30
2018-06-13T03:20:43.183Z,58.00
2018-06-13T03:24:16.411Z,57.90
2018-06-13T03:27:49.664Z,57.90
2018-06-13T03:31:22.902Z,57.80
2018-06-13T03:34:56.127Z,57.80
2018-06-13T03:38:29.376Z,57.70
2018-06-13T03:42:02.618Z,57.60
2018-06-13T03:45:35.859Z,58.00
2018-06-13T03:49:09.095Z,58.20
2018-06-13T03:52:42.347Z,58.30
2018-06-13T03:56:15.592Z,58.30
2018-06-13T03:59:48.831Z,58.60
2018-06-13T04:03:22.069Z,59.00
2018-06-13T04:06:55.316Z,59.60
2018-06-13T04:10:29.733Z,59.90
2018-06-13T04:14:03.143Z,59.80
2018-06-13T04:17:36.370Z,59.80
2018-06-13T04:21:09.612Z,59.60
2018-06-13T04:28:15.843Z,59.00
2018-06-13T04:31:49.071Z,58.40
2018-06-13T04:35:22.315Z,58.10
2018-06-13T04:38:55.547Z,57.80
2018-06-13T04:42:28.768Z,58.40
2018-06-13T04:46:01.987Z,59.00
2018-06-13T04:49:35.236Z,59.30
2018-06-13T04:53:08.496Z,59.40
2018-06-13T04:56:41.739Z,59.50
2018-06-13T05:00:15.002Z,59.50
2018-06-13T05:03:48.293Z,59.30
2018-06-13T05:07:21.579Z,59.50
2018-06-13T05:10:54.868Z,59.60
2018-06-13T05:14:28.115Z,59.80
2018-06-13T05:18:01.353Z,59.90
2018-06-13T05:21:34.584Z,59.50
2018-06-13T05:25:07.839Z,58.80
2018-06-13T05:28:41.112Z,58.70
2018-06-13T05:32:14.344Z,58.50
2018-06-13T05:35:47.668Z,58.70
2018-06-13T05:39:20.875Z,59.00
2018-06-13T05:42:54.117Z,58.60
2018-06-13T05:46:27.367Z,58.30
2018-06-13T05:50:00.617Z,58.40
2018-06-13T05:53:33.860Z,58.40
2018-06-13T05:57:07.099Z,58.50
2018-06-13T06:00:40.336Z,58.30
2018-06-13T06:04:13.576Z,58.50
2018-06-13T06:07:46.830Z,58.80
2018-06-13T06:11:20.111Z,58.90
2018-06-13T06:14:53.335Z,59.40
2018-06-13T06:18:26.583Z,58.50
2018-06-13T06:21:59.797Z,58.90
2018-06-13T06:29:06.104Z,59.00
2018-06-13T06:32:39.358Z,58.80
2018-06-13T06:36:12.624Z,58.40
2018-06-13T06:39:45.851Z,58.50
2018-06-13T06:43:19.106Z,58.80
2018-06-13T06:46:52.333Z,59.00
2018-06-13T06:50:25.564Z,58.90
2018-06-13T06:53:58.824Z,59.60
2018-06-13T06:57:32.079Z,60.50
2018-06-13T07:01:05.300Z,61.20
2018-06-13T07:04:38.531Z,61.00
2018-06-13T07:08:11.759Z,61.00
2018-06-13T07:11:44.984Z,62.90
2018-06-13T07:22:24.225Z,65.80
2018-06-13T07:25:57.465Z,67.00
2018-06-13T07:29:30.707Z,67.40
2018-06-13T07:33:03.964Z,68.10
2018-06-13T07:36:37.189Z,67.10
2018-06-13T07:40:10.423Z,66.60
2018-06-13T07:43:43.669Z,65.60
2018-06-13T07:50:49.874Z,63.80
2018-06-13T07:54:23.123Z,63.00
2018-06-13T07:57:56.371Z,63.10
2018-06-13T08:08:35.747Z,61.40
2018-06-13T08:12:08.911Z,61.10
2018-06-13T08:15:42.168Z,60.10
2018-06-13T08:19:15.434Z,59.90
2018-06-13T08:22:48.738Z,59.30
2018-06-13T08:26:21.974Z,58.50
2018-06-13T08:29:55.223Z,57.80
2018-06-13T08:33:28.491Z,57.60
2018-06-13T08:37:01.699Z,57.30
2018-06-13T08:40:34.930Z,57.50
2018-06-13T08:44:08.144Z,57.50
2018-06-13T08:51:14.340Z,57.10
2018-06-13T08:58:20.612Z,56.20
2018-06-13T09:01:53.859Z,55.70
2018-06-13T09:05:27.091Z,55.50
2018-06-13T09:09:00.332Z,54.80
2018-06-13T09:16:06.549Z,54.50
2018-06-13T09:19:39.803Z,54.20
2018-06-13T09:23:13.028Z,54.10
2018-06-13T09:30:19.251Z,54.30
2018-06-13T09:33:52.512Z,54.30
2018-06-13T09:37:25.815Z,54.00
2018-06-13T09:40:59.008Z,53.90
2018-06-13T09:44:32.231Z,53.60
2018-06-13T09:48:05.512Z,53.30
2018-06-13T09:51:38.728Z,53.20
2018-06-13T09:55:11.972Z,52.90
2018-06-13T09:58:50.522Z,52.90
2018-06-13T10:02:29.255Z,52.70
2018-06-13T10:06:02.508Z,53.20
2018-06-13T10:09:35.747Z,53.60
2018-06-13T10:13:08.980Z,54.00
2018-06-13T10:16:42.243Z,54.60
2018-06-13T10:20:15.479Z,55.00
2018-06-13T10:23:48.700Z,54.70
2018-06-13T10:27:27.403Z,53.70
2018-06-13T10:31:00.653Z,53.10
2018-06-13T10:34:33.861Z,52.60
2018-06-13T10:38:07.099Z,52.10
2018-06-13T10:41:40.458Z,51.80
2018-06-13T10:45:13.689Z,50.90
2018-06-13T10:48:46.895Z,50.80
2018-06-13T10:52:20.136Z,50.90
2018-06-13T10:55:53.365Z,50.30
2018-06-13T10:59:26.609Z,49.90
2018-06-13T11:06:32.875Z,50.30
2018-06-13T11:10:06.091Z,50.60
2018-06-13T11:13:39.347Z,50.50
2018-06-13T11:17:12.593Z,51.10
2018-06-13T11:20:45.845Z,50.70
2018-06-13T11:27:52.123Z,50.70
2018-06-13T11:31:25.365Z,50.30
2018-06-13T11:35:05.219Z,49.40
2018-06-13T11:38:38.464Z,48.80
2018-06-13T11:42:11.719Z,48.30
2018-06-13T11:45:44.960Z,47.80
2018-06-13T11:49:18.195Z,47.40
2018-06-13T11:52:51.434Z,47.10
2018-06-13T11:59:57.660Z,47.00
2018-06-13T12:03:30.884Z,47.40
2018-06-13T12:07:04.148Z,47.00
2018-06-13T12:10:37.379Z,46.90
2018-06-13T12:14:10.640Z,47.20
2018-06-13T12:17:43.898Z,47.50
2018-06-13T12:21:17.126Z,47.30
2018-06-13T12:28:23.335Z,46.90
2018-06-13T12:31:56.585Z,46.90
2018-06-13T12:35:29.831Z,47.10
2018-06-13T12:39:03.110Z,47.10
2018-06-13T12:42:36.359Z,47.10
2018-06-13T12:46:09.583Z,47.10
2018-06-13T12:49:42.831Z,47.00
2018-06-13T12:53:16.282Z,46.80
2018-06-13T12:56:49.546Z,46.30
2018-06-13T13:00:22.733Z,46.40
2018-06-13T13:03:56.189Z,46.30
2018-06-13T13:07:29.424Z,45.90
2018-06-13T13:14:36.515Z,45.10
2018-06-13T13:18:09.746Z,44.80
2018-06-13T13:32:21.933Z,44.60
2018-06-13T13:35:55.168Z,45.10
2018-06-13T13:39:28.444Z,46.00
2018-06-13T13:43:01.690Z,45.80
2018-06-13T13:46:34.916Z,46.30
2018-06-13T13:50:08.169Z,46.40
2018-06-13T13:53:41.399Z,47.00
2018-06-13T13:57:14.678Z,46.50
2018-06-13T14:00:47.933Z,45.70
2018-06-13T14:04:21.151Z,45.70
2018-06-13T14:07:54.398Z,46.10
2018-06-13T14:11:28.867Z,46.00
2018-06-13T14:15:02.111Z,45.70
2018-06-13T14:18:35.336Z,45.70
2018-06-13T14:22:08.664Z,45.80
2018-06-13T14:25:41.894Z,45.50
2018-06-13T14:29:16.003Z,45.60
2018-06-13T14:32:49.232Z,45.00
2018-06-13T14:36:22.477Z,44.70
2018-06-13T14:39:55.741Z,44.10
2018-06-13T14:43:28.995Z,43.90
2018-06-13T14:47:02.303Z,43.60
2018-06-13T14:50:35.543Z,43.00
2018-06-13T14:54:08.784Z,42.60
2018-06-13T14:57:41.995Z,42.10
2018-06-13T15:01:15.236Z,42.00
2018-06-13T15:04:48.459Z,42.10
2018-06-13T15:08:21.703Z,42.30
2018-06-13T15:11:55.959Z,42.60
2018-06-13T15:15:29.507Z,43.20
2018-06-13T15:19:02.740Z,43.20
2018-06-13T15:22:35.994Z,43.50
2018-06-13T15:29:42.247Z,44.40
2018-06-13T15:33:18.523Z,45.30
2018-06-13T15:36:52.373Z,46.10
2018-06-13T15:40:25.659Z,46.50
2018-06-13T15:43:58.881Z,46.20
2018-06-13T15:47:32.142Z,46.50
2018-06-13T15:51:05.607Z,46.80
2018-06-13T15:54:38.841Z,46.80
2018-06-13T15:58:12.078Z,46.90
2018-06-13T16:01:45.332Z,47.00
2018-06-13T16:05:18.535Z,47.10
2018-06-13T16:08:51.754Z,47.30
2018-06-13T16:12:25.204Z,47.50
2018-06-13T16:15:58.447Z,47.50
2018-06-13T16:19:31.713Z,47.30
2018-06-13T16:23:04.949Z,47.50
2018-06-13T16:26:38.203Z,47.60
2018-06-13T16:30:11.427Z,47.20
2018-06-13T16:33:44.679Z,47.30
2018-06-13T16:40:51.029Z,47.70
2018-06-13T16:44:24.298Z,47.20
2018-06-13T16:47:57.568Z,46.80
2018-06-13T16:55:14.172Z,46.70
2018-06-13T16:58:47.410Z,46.70
2018-06-13T17:05:53.631Z,46.60
2018-06-13T17:09:26.864Z,46.70
2018-06-13T17:13:00.101Z,46.80
2018-06-13T17:20:06.389Z,47.10
2018-06-13T17:23:39.601Z,47.10
2018-06-13T17:27:12.869Z,47.20
2018-06-13T17:30:46.095Z,46.90
2018-06-13T17:34:19.339Z,47.10
2018-06-13T17:37:52.871Z,47.30
2018-06-13T17:41:26.111Z,47.40
2018-06-13T17:44:59.385Z,47.50
2018-06-13T17:48:32.604Z,47.60
2018-06-13T17:52:05.839Z,47.60
2018-06-13T17:55:39.076Z,47.70
2018-06-13T17:59:12.304Z,47.60
2018-06-13T18:02:45.536Z,47.40
2018-06-13T18:06:18.763Z,47.50
2018-06-13T18:09:52.104Z,47.20
2018-06-13T18:16:58.329Z,47.10
2018-06-13T18:20:31.564Z,47.10
2018-06-13T18:24:04.808Z,47.20
2018-06-13T18:27:38.057Z,47.30
2018-06-13T18:31:11.295Z,47.30
2018-06-13T18:34:44.536Z,47.40
2018-06-13T18:38:17.812Z,47.40
2018-06-13T18:41:51.400Z,47.30
2018-06-13T18:45:24.675Z,47.60
2018-06-13T18:48:57.908Z,47.70
2018-06-13T18:52:31.139Z,48.40
2018-06-13T18:56:04.432Z,48.10
2018-06-13T18:59:37.670Z,48.30
2018-06-13T19:03:10.899Z,48.50
2018-06-13T19:06:44.128Z,48.80
2018-06-13T19:10:17.348Z,49.20
2018-06-13T19:13:50.563Z,49.30
2018-06-13T19:17:23.779Z,49.50
2018-06-13T19:20:56.989Z,49.80
2018-06-13T19:24:30.218Z,49.70
2018-06-13T19:28:03.427Z,49.90
2018-06-13T19:31:36.687Z,50.10
2018-06-13T19:38:42.891Z,50.60
2018-06-13T19:42:16.144Z,50.80
2018-06-13T19:45:49.452Z,51.20
2018-06-13T19:49:22.669Z,51.30
2018-06-13T19:53:01.375Z,51.30
2018-06-13T19:56:34.609Z,51.30
2018-06-13T20:03:46.259Z,51.20
2018-06-13T20:07:19.480Z,51.30
2018-06-13T20:10:52.692Z,51.30
2018-06-13T20:14:31.279Z,51.30
2018-06-13T20:18:10.131Z,51.30
2018-06-13T20:21:43.352Z,51.50
2018-06-13T20:25:21.915Z,51.80
2018-06-13T20:30:02.295Z,51.80
2018-06-13T20:33:35.535Z,51.90
2018-06-13T20:37:08.784Z,51.90
2018-06-13T20:40:42.009Z,51.90
2018-06-13T20:44:15.240Z,52.00
2018-06-13T20:47:48.456Z,52.10
2018-06-13T20:51:21.740Z,52.30
2018-06-13T20:54:54.936Z,52.20
2018-06-13T20:58:28.148Z,52.40
2018-06-13T21:02:01.372Z,52.30
2018-06-13T21:05:34.607Z,52.50
2018-06-13T21:09:09.203Z,52.60
2018-06-13T21:16:15.808Z,53.00
2018-06-13T21:19:49.061Z,53.40
2018-06-13T21:23:22.256Z,53.80
2018-06-13T21:26:55.476Z,54.20
2018-06-13T21:30:28.716Z,54.40
2018-06-13T21:34:02.685Z,55.20
2018-06-13T21:37:35.933Z,54.80
2018-06-13T21:41:09.168Z,54.80
2018-06-13T21:44:42.457Z,55.10
2018-06-13T21:48:15.681Z,55.20
2018-06-13T21:51:48.906Z,55.40
2018-06-13T21:55:22.143Z,55.70
2018-06-13T21:58:55.434Z,55.70
2018-06-13T22:02:28.647Z,55.90
2018-06-13T22:06:02.084Z,56.00
2018-06-13T22:09:35.297Z,56.30
2018-06-13T22:13:08.527Z,56.50
2018-06-13T22:16:41.760Z,56.70
2018-06-13T22:20:14.974Z,57.00
2018-06-13T22:23:48.204Z,57.10
2018-06-13T22:30:54.475Z,57.50
2018-06-13T22:34:27.697Z,57.50
2018-06-13T22:38:00.924Z,57.70
2018-06-13T22:41:34.161Z,57.70
2018-06-13T22:45:07.392Z,57.30
2018-06-13T22:48:40.616Z,57.10
2018-06-13T22:52:13.863Z,57.00
2018-06-13T22:55:47.116Z,56.90
2018-06-13T22:59:20.322Z,56.80
2018-06-13T23:02:53.563Z,56.90
2018-06-13T23:06:26.799Z,56.90
2018-06-13T23:13:33.017Z,57.00
2018-06-13T23:17:06.245Z,57.00
2018-06-13T23:20:40.443Z,57.10
2018-06-13T23:24:13.680Z,57.10
2018-06-13T23:27:46.882Z,57.20
2018-06-13T23:31:20.115Z,57.10
2018-06-13T23:34:53.360Z,56.80
2018-06-13T23:38:26.585Z,56.80
2018-06-13T23:41:59.800Z,56.80
2018-06-13T23:45:33.029Z,56.90
2018-06-13T23:49:06.268Z,56.90
2018-06-13T23:52:39.491Z,56.80
2018-06-13T23:56:12.707Z,56.80
2018-06-13T23:59:45.963Z,56.80
